PWSweather.com
Personal Weather Stations
Station Observations

AwhituWaiuku, CA 268400

Lat: -37.058, Lon: -174.6346

Elevation: 250

Station Type: Personal

http://www.weather-display.com/windy/gb/grahamsbeach.htm

High Low Average
Temperature 60.0°F15.6°C 46.3°F7.9°C 51.7°F10.9°C
Dew Point 51.3°F10.7°C 36.5°F2.5°C 47.0°F8.3°C
Winds 5.6 mph 9.0 kmh Calm Calm 2.0 mph E3.2 kmh E
Wind Gusts 9.0 mph14.5 kmh -- 4.0 mph6.4 kmh
Humidity 98% 43% 86%
Pressure 30.39 in1029.1 mb 30.31 in1026.4 mb -
Precipitation 0.00 in0.0 mm - -
Hour Temp Dew Point Humidity Winds Wind Gusts Pressure Precip Precip Rate Daily Precip Total
12:01 AM 48.4°F9.1°C 47.9°F8.8°C 98% Calm Calm -- 30.38 in1028.8 mb 0.00 in0.0 mm 0.00 in/hr0.0 mm/hr 0.00 in0.0 mm
12:30 AM 48.1°F8.9°C 47.5°F8.6°C 98% Calm Calm -- 30.38 in1028.8 mb 0.00 in0.0 mm 0.00 in/hr0.0 mm/hr 0.00 in0.0 mm
01:01 AM 47.8°F8.8°C 47.3°F8.5°C 98% Calm Calm -- 30.38 in1028.8 mb 0.00 in0.0 mm 0.00 in/hr0.0 mm/hr 0.00 in0.0 mm
02:01 AM 48.0°F8.9°C 47.5°F8.6°C 98% 0.3 mph E0.5 kmh E -- 30.37 in1028.4 mb 0.00 in0.0 mm 0.00 in/hr0.0 mm/hr 0.00 in0.0 mm
02:30 AM 48.3°F9.1°C 47.8°F8.8°C 98% Calm Calm -- 30.37 in1028.4 mb 0.00 in0.0 mm 0.00 in/hr0.0 mm/hr 0.00 in0.0 mm
03:01 AM 48.1°F8.9°C 47.6°F8.7°C 98% 2.6 mph E4.2 kmh E 6.0 mph9.7 kmh 30.36 in1028.1 mb 0.00 in0.0 mm 0.00 in/hr0.0 mm/hr 0.00 in0.0 mm
04:01 AM 47.8°F8.8°C 47.3°F8.5°C 98% 4.1 mph E6.6 kmh E 6.0 mph9.7 kmh 30.36 in1028.1 mb 0.00 in0.0 mm 0.00 in/hr0.0 mm/hr 0.00 in0.0 mm
04:30 AM 47.3°F8.5°C 46.8°F8.2°C 98% 4.1 mph E6.6 kmh E 6.0 mph9.7 kmh 30.36 in1028.1 mb 0.00 in0.0 mm 0.00 in/hr0.0 mm/hr 0.00 in0.0 mm
05:01 AM 47.0°F8.3°C 46.4°F8.0°C 98% Calm Calm -- 30.36 in1028.1 mb 0.00 in0.0 mm 0.00 in/hr0.0 mm/hr 0.00 in0.0 mm
06:01 AM 46.6°F8.1°C 46.1°F7.8°C 98% Calm Calm -- 30.37 in1028.4 mb 0.00 in0.0 mm 0.00 in/hr0.0 mm/hr 0.00 in0.0 mm
06:30 AM 46.9°F8.3°C 46.4°F8.0°C 98% 3.1 mph ESE5.0 kmh ESE 4.0 mph6.4 kmh 30.38 in1028.8 mb 0.00 in0.0 mm 0.00 in/hr0.0 mm/hr 0.00 in0.0 mm
07:01 AM 46.3°F7.9°C 45.8°F7.7°C 98% 3.6 mph E5.8 kmh E 6.0 mph9.7 kmh 30.38 in1028.8 mb 0.00 in0.0 mm 0.00 in/hr0.0 mm/hr 0.00 in0.0 mm
08:01 AM 47.0°F8.3°C 46.5°F8.1°C 98% 2.7 mph E4.3 kmh E 4.0 mph6.4 kmh 30.39 in1029.1 mb 0.00 in0.0 mm 0.00 in/hr0.0 mm/hr 0.00 in0.0 mm
08:30 AM 48.9°F9.4°C 48.3°F9.1°C 98% 1.4 mph E2.3 kmh E 2.0 mph3.2 kmh 30.39 in1029.1 mb 0.00 in0.0 mm 0.00 in/hr0.0 mm/hr 0.00 in0.0 mm
09:01 AM 49.9°F9.9°C 49.4°F9.7°C 98% 3.4 mph ESE5.5 kmh ESE 6.0 mph9.7 kmh 30.39 in1029.1 mb 0.00 in0.0 mm 0.00 in/hr0.0 mm/hr 0.00 in0.0 mm
09:30 AM 50.6°F10.3°C 50.1°F10.1°C 98% 3.7 mph E6.0 kmh E 6.0 mph9.7 kmh 30.39 in1029.1 mb 0.00 in0.0 mm 0.00 in/hr0.0 mm/hr 0.00 in0.0 mm
10:01 AM 51.5°F10.8°C 50.4°F10.2°C 96% 2.4 mph E3.9 kmh E 4.0 mph6.4 kmh 30.39 in1029.1 mb 0.00 in0.0 mm 0.00 in/hr0.0 mm/hr 0.00 in0.0 mm
10:30 AM 53.4°F11.9°C 50.8°F10.4°C 91% 2.6 mph E4.2 kmh E 4.0 mph6.4 kmh 30.39 in1029.1 mb 0.00 in0.0 mm 0.00 in/hr0.0 mm/hr 0.00 in0.0 mm
11:01 AM 54.4°F12.4°C 51.2°F10.7°C 89% 2.9 mph E4.7 kmh E 7.0 mph11.3 kmh 30.39 in1029.1 mb 0.00 in0.0 mm 0.00 in/hr0.0 mm/hr 0.00 in0.0 mm
11:30 AM 55.4°F13.0°C 51.3°F10.7°C 86% 3.6 mph E5.8 kmh E 6.0 mph9.7 kmh 30.38 in1028.8 mb 0.00 in0.0 mm 0.00 in/hr0.0 mm/hr 0.00 in0.0 mm
12:01 PM 57.7°F14.3°C 43.4°F6.3°C 59% 4.0 mph E6.4 kmh E 9.0 mph14.5 kmh 30.36 in1028.1 mb 0.00 in0.0 mm 0.00 in/hr0.0 mm/hr 0.00 in0.0 mm
12:30 PM 59.0°F15.0°C 38.2°F3.4°C 46% 4.2 mph NE6.8 kmh NE 4.0 mph6.4 kmh 30.36 in1028.1 mb 0.00 in0.0 mm 0.00 in/hr0.0 mm/hr 0.00 in0.0 mm
01:01 PM 60.0°F15.6°C 39.1°F3.9°C 46% 1.9 mph E3.1 kmh E 4.0 mph6.4 kmh 30.34 in1027.4 mb 0.00 in0.0 mm 0.00 in/hr0.0 mm/hr 0.00 in0.0 mm
01:30 PM 59.0°F15.0°C 36.5°F2.5°C 43% 2.8 mph ENE4.5 kmh ENE 6.0 mph9.7 kmh 30.34 in1027.4 mb 0.00 in0.0 mm 0.00 in/hr0.0 mm/hr 0.00 in0.0 mm
02:01 PM 57.0°F13.9°C 39.5°F4.2°C 52% 3.8 mph E6.1 kmh E 7.0 mph11.3 kmh 30.33 in1027.1 mb 0.00 in0.0 mm 0.00 in/hr0.0 mm/hr 0.00 in0.0 mm
02:30 PM 58.4°F14.7°C 40.3°F4.6°C 51% 2.6 mph E4.2 kmh E 7.0 mph11.3 kmh 30.32 in1026.8 mb 0.00 in0.0 mm 0.00 in/hr0.0 mm/hr 0.00 in0.0 mm
03:01 PM 58.5°F14.7°C 44.6°F7.0°C 60% 1.6 mph NE2.6 kmh NE 4.0 mph6.4 kmh 30.32 in1026.8 mb 0.00 in0.0 mm 0.00 in/hr0.0 mm/hr 0.00 in0.0 mm
03:30 PM 59.8°F15.4°C 44.0°F6.7°C 56% 4.1 mph E6.6 kmh E 6.0 mph9.7 kmh 30.31 in1026.4 mb 0.00 in0.0 mm 0.00 in/hr0.0 mm/hr 0.00 in0.0 mm
04:01 PM 57.4°F14.1°C 45.3°F7.4°C 64% 2.0 mph ENE3.2 kmh ENE 8.0 mph12.9 kmh 30.31 in1026.4 mb 0.00 in0.0 mm 0.00 in/hr0.0 mm/hr 0.00 in0.0 mm
04:30 PM 56.3°F13.5°C 48.5°F9.2°C 75% 0.6 mph NE1.0 kmh NE 4.0 mph6.4 kmh 30.31 in1026.4 mb 0.00 in0.0 mm 0.00 in/hr0.0 mm/hr 0.00 in0.0 mm
05:01 PM 55.0°F12.8°C 47.9°F8.8°C 77% 1.0 mph NNE1.6 kmh NNE 6.0 mph9.7 kmh 30.31 in1026.4 mb 0.00 in0.0 mm 0.00 in/hr0.0 mm/hr 0.00 in0.0 mm
05:30 PM 53.9°F12.2°C 48.2°F9.0°C 81% 2.1 mph NNE3.4 kmh NNE 4.0 mph6.4 kmh 30.33 in1027.1 mb 0.00 in0.0 mm 0.00 in/hr0.0 mm/hr 0.00 in0.0 mm
06:01 PM 53.0°F11.7°C 49.2°F9.6°C 87% 5.6 mph NNE9.0 kmh NNE 9.0 mph14.5 kmh 30.34 in1027.4 mb 0.00 in0.0 mm 0.00 in/hr0.0 mm/hr 0.00 in0.0 mm
06:30 PM 52.1°F11.2°C 49.6°F9.8°C 91% 1.1 mph NNE1.8 kmh NNE 6.0 mph9.7 kmh 30.35 in1027.8 mb 0.00 in0.0 mm 0.00 in/hr0.0 mm/hr 0.00 in0.0 mm
07:01 PM 51.7°F10.9°C 50.6°F10.3°C 96% 1.6 mph N2.6 kmh N 6.0 mph9.7 kmh 30.36 in1028.1 mb 0.00 in0.0 mm 0.00 in/hr0.0 mm/hr 0.00 in0.0 mm
07:30 PM 51.4°F10.8°C 50.9°F10.5°C 98% 1.3 mph NE2.1 kmh NE 2.0 mph3.2 kmh 30.36 in1028.1 mb 0.00 in0.0 mm 0.00 in/hr0.0 mm/hr 0.00 in0.0 mm
08:01 PM 51.2°F10.7°C 50.7°F10.4°C 98% 0.2 mph E0.3 kmh E 4.0 mph6.4 kmh 30.37 in1028.4 mb 0.00 in0.0 mm 0.00 in/hr0.0 mm/hr 0.00 in0.0 mm
08:30 PM 50.8°F10.4°C 50.3°F10.2°C 98% 1.5 mph E2.4 kmh E 4.0 mph6.4 kmh 30.38 in1028.8 mb 0.00 in0.0 mm 0.00 in/hr0.0 mm/hr 0.00 in0.0 mm
09:01 PM 49.7°F9.8°C 49.2°F9.6°C 98% 1.0 mph E1.6 kmh E 4.0 mph6.4 kmh 30.38 in1028.8 mb 0.00 in0.0 mm 0.00 in/hr0.0 mm/hr 0.00 in0.0 mm
09:30 PM 49.0°F9.4°C 48.5°F9.2°C 98% 0.7 mph E1.1 kmh E 1.0 mph1.6 kmh 30.39 in1029.1 mb 0.00 in0.0 mm 0.00 in/hr0.0 mm/hr 0.00 in0.0 mm
10:01 PM 48.4°F9.1°C 47.9°F8.8°C 98% 2.4 mph E3.9 kmh E 4.0 mph6.4 kmh 30.39 in1029.1 mb 0.00 in0.0 mm 0.00 in/hr0.0 mm/hr 0.00 in0.0 mm
10:30 PM 47.7°F8.7°C 47.2°F8.4°C 98% Calm Calm -- 30.39 in1029.1 mb 0.00 in0.0 mm 0.00 in/hr0.0 mm/hr 0.00 in0.0 mm
11:01 PM 47.7°F8.7°C 47.2°F8.4°C 98% 2.0 mph E3.2 kmh E 2.0 mph3.2 kmh 30.39 in1029.1 mb 0.00 in0.0 mm 0.00 in/hr0.0 mm/hr 0.00 in0.0 mm
11:30 PM 47.2°F8.4°C 46.7°F8.2°C 98% 1.2 mph E1.9 kmh E 2.0 mph3.2 kmh 30.39 in1029.1 mb 0.00 in0.0 mm 0.00 in/hr0.0 mm/hr 0.00 in0.0 mm